sensor_id;sensor_type;location;lat;lon;timestamp;P1;durP1;ratioP1;P2;durP2;ratioP2
44304;SDS011;30019;50.576;8.568;2022-10-30T00:02:08;68.60;;;18.50;;
44304;SDS011;30019;50.576;8.568;2022-10-30T00:04:34;66.28;;;19.48;;
44304;SDS011;30019;50.576;8.568;2022-10-30T00:06:59;111.70;;;19.48;;
44304;SDS011;30019;50.576;8.568;2022-10-30T00:09:25;87.65;;;19.55;;
44304;SDS011;30019;50.576;8.568;2022-10-30T00:11:51;64.62;;;18.40;;
44304;SDS011;30019;50.576;8.568;2022-10-30T00:14:16;101.78;;;19.33;;
44304;SDS011;30019;50.576;8.568;2022-10-30T00:16:42;117.85;;;20.42;;
44304;SDS011;30019;50.576;8.568;2022-10-30T00:19:07;95.22;;;19.40;;
44304;SDS011;30019;50.576;8.568;2022-10-30T00:21:33;50.55;;;18.52;;
44304;SDS011;30019;50.576;8.568;2022-10-30T00:23:59;82.68;;;20.83;;
44304;SDS011;30019;50.576;8.568;2022-10-30T00:26:24;90.97;;;22.48;;
44304;SDS011;30019;50.576;8.568;2022-10-30T00:28:51;60.45;;;20.75;;
44304;SDS011;30019;50.576;8.568;2022-10-30T00:31:17;45.12;;;20.12;;
44304;SDS011;30019;50.576;8.568;2022-10-30T00:33:47;56.60;;;20.02;;
44304;SDS011;30019;50.576;8.568;2022-10-30T00:36:14;44.05;;;20.58;;
44304;SDS011;30019;50.576;8.568;2022-10-30T00:38:39;42.85;;;20.48;;
44304;SDS011;30019;50.576;8.568;2022-10-30T00:41:05;51.88;;;22.05;;
44304;SDS011;30019;50.576;8.568;2022-10-30T00:43:32;87.72;;;25.90;;
44304;SDS011;30019;50.576;8.568;2022-10-30T00:46:01;78.68;;;24.80;;
44304;SDS011;30019;50.576;8.568;2022-10-30T00:48:30;79.28;;;26.70;;
44304;SDS011;30019;50.576;8.568;2022-10-30T00:50:56;131.45;;;27.42;;
44304;SDS011;30019;50.576;8.568;2022-10-30T00:53:24;131.73;;;26.87;;
44304;SDS011;30019;50.576;8.568;2022-10-30T00:55:52;137.80;;;31.15;;
44304;SDS011;30019;50.576;8.568;2022-10-30T00:58:23;153.05;;;31.02;;
44304;SDS011;30019;50.576;8.568;2022-10-30T01:00:54;80.95;;;26.87;;
44304;SDS011;30019;50.576;8.568;2022-10-30T01:03:21;102.50;;;28.17;;
44304;SDS011;30019;50.576;8.568;2022-10-30T01:05:50;73.22;;;26.25;;
44304;SDS011;30019;50.576;8.568;2022-10-30T01:08:19;69.97;;;25.25;;
44304;SDS011;30019;50.576;8.568;2022-10-30T01:10:44;103.78;;;26.35;;
44304;SDS011;30019;50.576;8.568;2022-10-30T01:13:12;92.75;;;26.80;;
44304;SDS011;30019;50.576;8.568;2022-10-30T01:15:39;69.53;;;28.00;;
44304;SDS011;30019;50.576;8.568;2022-10-30T01:18:20;94.18;;;29.85;;
44304;SDS011;30019;50.576;8.568;2022-10-30T01:23:47;85.28;;;31.30;;
44304;SDS011;30019;50.576;8.568;2022-10-30T01:37:24;135.18;;;27.98;;
44304;SDS011;30019;50.576;8.568;2022-10-30T01:40:08;188.65;;;30.05;;
44304;SDS011;30019;50.576;8.568;2022-10-30T01:42:44;167.52;;;29.25;;
44304;SDS011;30019;50.576;8.568;2022-10-30T01:45:26;276.62;;;30.52;;
44304;SDS011;30019;50.576;8.568;2022-10-30T01:48:29;251.93;;;29.10;;
44304;SDS011;30019;50.576;8.568;2022-10-30T01:56:35;119.80;;;23.92;;
44304;SDS011;30019;50.576;8.568;2022-10-30T01:59:14;113.78;;;24.70;;
44304;SDS011;30019;50.576;8.568;2022-10-30T02:02:05;97.90;;;26.42;;
44304;SDS011;30019;50.576;8.568;2022-10-30T02:04:31;109.60;;;28.27;;
44304;SDS011;30019;50.576;8.568;2022-10-30T02:06:57;97.22;;;25.95;;
44304;SDS011;30019;50.576;8.568;2022-10-30T02:09:22;66.57;;;25.25;;
44304;SDS011;30019;50.576;8.568;2022-10-30T02:11:48;74.35;;;26.15;;
44304;SDS011;30019;50.576;8.568;2022-10-30T02:14:17;73.95;;;25.90;;
44304;SDS011;30019;50.576;8.568;2022-10-30T02:16:48;64.45;;;26.00;;
44304;SDS011;30019;50.576;8.568;2022-10-30T02:19:16;76.18;;;26.12;;
44304;SDS011;30019;50.576;8.568;2022-10-30T02:21:42;69.70;;;27.52;;
44304;SDS011;30019;50.576;8.568;2022-10-30T02:24:07;135.57;;;28.38;;
44304;SDS011;30019;50.576;8.568;2022-10-30T02:26:33;85.60;;;26.85;;
44304;SDS011;30019;50.576;8.568;2022-10-30T02:28:58;72.50;;;27.08;;
44304;SDS011;30019;50.576;8.568;2022-10-30T02:31:24;89.32;;;27.62;;
44304;SDS011;30019;50.576;8.568;2022-10-30T02:33:49;95.97;;;27.33;;
44304;SDS011;30019;50.576;8.568;2022-10-30T02:36:15;99.43;;;27.55;;
44304;SDS011;30019;50.576;8.568;2022-10-30T02:38:41;137.02;;;30.55;;
44304;SDS011;30019;50.576;8.568;2022-10-30T02:41:07;127.95;;;33.70;;
44304;SDS011;30019;50.576;8.568;2022-10-30T02:43:32;108.60;;;35.55;;
44304;SDS011;30019;50.576;8.568;2022-10-30T02:45:58;134.48;;;35.72;;
44304;SDS011;30019;50.576;8.568;2022-10-30T02:48:24;119.70;;;32.30;;
44304;SDS011;30019;50.576;8.568;2022-10-30T02:50:49;122.70;;;33.58;;
44304;SDS011;30019;50.576;8.568;2022-10-30T02:53:15;86.53;;;33.58;;
44304;SDS011;30019;50.576;8.568;2022-10-30T02:55:40;94.45;;;31.25;;
44304;SDS011;30019;50.576;8.568;2022-10-30T02:58:06;95.55;;;33.03;;
44304;SDS011;30019;50.576;8.568;2022-10-30T03:00:32;76.03;;;31.42;;
44304;SDS011;30019;50.576;8.568;2022-10-30T03:02:57;58.13;;;31.20;;
44304;SDS011;30019;50.576;8.568;2022-10-30T03:05:23;57.65;;;29.80;;
44304;SDS011;30019;50.576;8.568;2022-10-30T03:07:49;60.67;;;29.42;;
44304;SDS011;30019;50.576;8.568;2022-10-30T03:10:15;61.08;;;26.77;;
44304;SDS011;30019;50.576;8.568;2022-10-30T03:12:42;54.08;;;24.92;;
44304;SDS011;30019;50.576;8.568;2022-10-30T03:15:07;51.83;;;23.17;;
44304;SDS011;30019;50.576;8.568;2022-10-30T03:17:33;67.28;;;22.98;;
44304;SDS011;30019;50.576;8.568;2022-10-30T03:19:59;39.05;;;21.25;;
44304;SDS011;30019;50.576;8.568;2022-10-30T03:22:25;33.70;;;20.50;;
44304;SDS011;30019;50.576;8.568;2022-10-30T03:24:50;45.47;;;21.60;;
44304;SDS011;30019;50.576;8.568;2022-10-30T03:27:16;35.47;;;21.12;;
44304;SDS011;30019;50.576;8.568;2022-10-30T03:29:41;33.58;;;20.95;;
44304;SDS011;30019;50.576;8.568;2022-10-30T03:32:08;33.00;;;20.67;;
44304;SDS011;30019;50.576;8.568;2022-10-30T03:34:34;31.23;;;18.15;;
44304;SDS011;30019;50.576;8.568;2022-10-30T03:37:00;28.52;;;17.42;;
44304;SDS011;30019;50.576;8.568;2022-10-30T03:39:26;34.22;;;20.25;;
44304;SDS011;30019;50.576;8.568;2022-10-30T03:41:51;28.67;;;18.75;;
44304;SDS011;30019;50.576;8.568;2022-10-30T03:44:17;30.05;;;18.98;;
44304;SDS011;30019;50.576;8.568;2022-10-30T03:46:42;34.25;;;20.88;;
44304;SDS011;30019;50.576;8.568;2022-10-30T03:49:08;31.50;;;19.02;;
44304;SDS011;30019;50.576;8.568;2022-10-30T03:51:34;37.90;;;21.67;;
44304;SDS011;30019;50.576;8.568;2022-10-30T03:53:59;42.08;;;21.02;;
44304;SDS011;30019;50.576;8.568;2022-10-30T03:56:25;30.05;;;18.12;;
44304;SDS011;30019;50.576;8.568;2022-10-30T03:58:50;30.55;;;19.08;;
44304;SDS011;30019;50.576;8.568;2022-10-30T04:01:16;29.40;;;18.85;;
44304;SDS011;30019;50.576;8.568;2022-10-30T04:03:42;27.15;;;18.12;;
44304;SDS011;30019;50.576;8.568;2022-10-30T04:06:07;27.92;;;17.33;;
44304;SDS011;30019;50.576;8.568;2022-10-30T04:08:33;30.33;;;17.50;;
44304;SDS011;30019;50.576;8.568;2022-10-30T04:10:59;29.20;;;18.23;;
44304;SDS011;30019;50.576;8.568;2022-10-30T04:13:24;32.33;;;16.40;;
44304;SDS011;30019;50.576;8.568;2022-10-30T04:15:50;26.00;;;15.77;;
44304;SDS011;30019;50.576;8.568;2022-10-30T04:18:16;20.23;;;15.00;;
44304;SDS011;30019;50.576;8.568;2022-10-30T04:20:42;26.83;;;16.73;;
44304;SDS011;30019;50.576;8.568;2022-10-30T04:23:11;25.02;;;14.90;;
44304;SDS011;30019;50.576;8.568;2022-10-30T04:25:39;25.42;;;14.50;;
44304;SDS011;30019;50.576;8.568;2022-10-30T04:28:04;20.20;;;14.98;;
44304;SDS011;30019;50.576;8.568;2022-10-30T04:30:30;23.77;;;16.30;;
44304;SDS011;30019;50.576;8.568;2022-10-30T04:32:59;25.02;;;14.98;;
44304;SDS011;30019;50.576;8.568;2022-10-30T04:35:26;20.65;;;14.20;;
44304;SDS011;30019;50.576;8.568;2022-10-30T04:37:55;23.48;;;13.98;;
44304;SDS011;30019;50.576;8.568;2022-10-30T04:40:21;21.67;;;14.45;;
44304;SDS011;30019;50.576;8.568;2022-10-30T04:42:48;25.02;;;14.52;;
44304;SDS011;30019;50.576;8.568;2022-10-30T04:45:14;23.17;;;14.98;;
44304;SDS011;30019;50.576;8.568;2022-10-30T04:47:40;21.67;;;14.60;;
44304;SDS011;30019;50.576;8.568;2022-10-30T04:50:06;23.83;;;14.20;;
44304;SDS011;30019;50.576;8.568;2022-10-30T04:52:32;19.77;;;14.05;;
44304;SDS011;30019;50.576;8.568;2022-10-30T04:54:58;22.27;;;14.77;;
44304;SDS011;30019;50.576;8.568;2022-10-30T04:57:23;22.15;;;15.27;;
44304;SDS011;30019;50.576;8.568;2022-10-30T04:59:49;21.45;;;14.80;;
44304;SDS011;30019;50.576;8.568;2022-10-30T05:02:15;29.10;;;16.60;;
44304;SDS011;30019;50.576;8.568;2022-10-30T05:04:43;35.05;;;16.85;;
44304;SDS011;30019;50.576;8.568;2022-10-30T05:07:09;45.80;;;18.30;;
44304;SDS011;30019;50.576;8.568;2022-10-30T05:09:35;65.60;;;21.73;;
44304;SDS011;30019;50.576;8.568;2022-10-30T05:12:00;57.17;;;22.27;;
44304;SDS011;30019;50.576;8.568;2022-10-30T05:14:30;70.28;;;21.45;;
44304;SDS011;30019;50.576;8.568;2022-10-30T05:16:56;37.67;;;17.52;;
44304;SDS011;30019;50.576;8.568;2022-10-30T05:19:22;63.47;;;19.30;;
44304;SDS011;30019;50.576;8.568;2022-10-30T05:21:48;80.50;;;21.00;;
44304;SDS011;30019;50.576;8.568;2022-10-30T05:24:13;84.20;;;22.45;;
44304;SDS011;30019;50.576;8.568;2022-10-30T05:26:39;57.45;;;22.13;;
44304;SDS011;30019;50.576;8.568;2022-10-30T05:29:04;79.55;;;21.35;;
44304;SDS011;30019;50.576;8.568;2022-10-30T05:31:30;88.12;;;22.48;;
44304;SDS011;30019;50.576;8.568;2022-10-30T05:33:55;111.18;;;26.42;;
44304;SDS011;30019;50.576;8.568;2022-10-30T05:36:21;80.35;;;25.17;;
44304;SDS011;30019;50.576;8.568;2022-10-30T05:38:47;67.28;;;21.87;;
44304;SDS011;30019;50.576;8.568;2022-10-30T05:41:12;62.45;;;24.30;;
44304;SDS011;30019;50.576;8.568;2022-10-30T05:43:38;53.22;;;21.15;;
44304;SDS011;30019;50.576;8.568;2022-10-30T05:46:03;60.55;;;22.83;;
44304;SDS011;30019;50.576;8.568;2022-10-30T05:48:29;53.78;;;23.20;;
44304;SDS011;30019;50.576;8.568;2022-10-30T05:50:55;96.72;;;24.10;;
44304;SDS011;30019;50.576;8.568;2022-10-30T05:53:21;88.25;;;25.50;;
44304;SDS011;30019;50.576;8.568;2022-10-30T05:55:47;91.97;;;25.75;;
44304;SDS011;30019;50.576;8.568;2022-10-30T05:58:13;82.00;;;25.62;;
44304;SDS011;30019;50.576;8.568;2022-10-30T06:00:39;92.20;;;27.08;;
44304;SDS011;30019;50.576;8.568;2022-10-30T06:03:06;115.40;;;28.05;;
44304;SDS011;30019;50.576;8.568;2022-10-30T06:05:34;107.50;;;27.73;;
44304;SDS011;30019;50.576;8.568;2022-10-30T06:08:00;83.97;;;29.08;;
44304;SDS011;30019;50.576;8.568;2022-10-30T06:10:28;111.60;;;32.92;;
44304;SDS011;30019;50.576;8.568;2022-10-30T06:13:01;118.00;;;31.55;;
44304;SDS011;30019;50.576;8.568;2022-10-30T06:15:28;147.40;;;33.80;;
44304;SDS011;30019;50.576;8.568;2022-10-30T06:17:54;103.85;;;33.15;;
44304;SDS011;30019;50.576;8.568;2022-10-30T06:20:22;100.20;;;31.50;;
44304;SDS011;30019;50.576;8.568;2022-10-30T06:22:53;97.25;;;30.62;;
44304;SDS011;30019;50.576;8.568;2022-10-30T06:25:23;117.05;;;32.97;;
44304;SDS011;30019;50.576;8.568;2022-10-30T06:27:49;120.15;;;32.33;;
44304;SDS011;30019;50.576;8.568;2022-10-30T06:30:15;100.28;;;29.08;;
44304;SDS011;30019;50.576;8.568;2022-10-30T06:32:41;102.00;;;30.37;;
44304;SDS011;30019;50.576;8.568;2022-10-30T06:35:07;109.75;;;30.08;;
44304;SDS011;30019;50.576;8.568;2022-10-30T06:37:33;91.20;;;29.80;;
44304;SDS011;30019;50.576;8.568;2022-10-30T06:39:58;75.72;;;26.85;;
44304;SDS011;30019;50.576;8.568;2022-10-30T06:42:25;82.90;;;29.25;;
44304;SDS011;30019;50.576;8.568;2022-10-30T06:44:50;78.95;;;27.42;;
44304;SDS011;30019;50.576;8.568;2022-10-30T06:47:16;85.82;;;27.83;;
44304;SDS011;30019;50.576;8.568;2022-10-30T06:49:42;89.72;;;26.48;;
44304;SDS011;30019;50.576;8.568;2022-10-30T06:52:07;71.03;;;27.70;;
44304;SDS011;30019;50.576;8.568;2022-10-30T06:54:33;75.97;;;27.73;;
44304;SDS011;30019;50.576;8.568;2022-10-30T06:56:59;100.57;;;27.87;;
44304;SDS011;30019;50.576;8.568;2022-10-30T06:59:25;105.78;;;27.90;;
44304;SDS011;30019;50.576;8.568;2022-10-30T07:01:51;68.40;;;26.45;;
44304;SDS011;30019;50.576;8.568;2022-10-30T07:04:17;60.25;;;25.58;;
44304;SDS011;30019;50.576;8.568;2022-10-30T07:06:42;73.95;;;22.75;;
44304;SDS011;30019;50.576;8.568;2022-10-30T07:09:08;58.15;;;22.62;;
44304;SDS011;30019;50.576;8.568;2022-10-30T07:11:34;72.70;;;21.73;;
44304;SDS011;30019;50.576;8.568;2022-10-30T07:14:00;57.65;;;21.00;;
44304;SDS011;30019;50.576;8.568;2022-10-30T07:16:26;59.20;;;19.48;;
44304;SDS011;30019;50.576;8.568;2022-10-30T07:18:51;42.97;;;17.90;;
44304;SDS011;30019;50.576;8.568;2022-10-30T07:21:17;43.75;;;19.05;;
44304;SDS011;30019;50.576;8.568;2022-10-30T07:23:42;66.07;;;18.45;;
44304;SDS011;30019;50.576;8.568;2022-10-30T07:26:08;42.03;;;17.17;;
44304;SDS011;30019;50.576;8.568;2022-10-30T07:28:33;59.85;;;19.20;;
44304;SDS011;30019;50.576;8.568;2022-10-30T07:30:59;37.10;;;15.82;;
44304;SDS011;30019;50.576;8.568;2022-10-30T07:33:24;62.47;;;16.50;;
44304;SDS011;30019;50.576;8.568;2022-10-30T07:35:51;46.83;;;15.82;;
44304;SDS011;30019;50.576;8.568;2022-10-30T07:38:16;49.00;;;16.08;;
44304;SDS011;30019;50.576;8.568;2022-10-30T07:40:42;54.13;;;16.35;;
44304;SDS011;30019;50.576;8.568;2022-10-30T07:43:08;60.15;;;16.98;;
44304;SDS011;30019;50.576;8.568;2022-10-30T07:45:37;70.47;;;17.55;;
44304;SDS011;30019;50.576;8.568;2022-10-30T07:48:03;60.25;;;17.35;;
44304;SDS011;30019;50.576;8.568;2022-10-30T07:50:29;50.17;;;18.08;;
44304;SDS011;30019;50.576;8.568;2022-10-30T07:52:55;51.70;;;19.05;;
44304;SDS011;30019;50.576;8.568;2022-10-30T07:55:21;45.80;;;18.42;;
44304;SDS011;30019;50.576;8.568;2022-10-30T07:57:47;67.80;;;19.73;;
44304;SDS011;30019;50.576;8.568;2022-10-30T08:00:13;51.40;;;18.08;;
44304;SDS011;30019;50.576;8.568;2022-10-30T08:02:39;55.42;;;17.92;;
44304;SDS011;30019;50.576;8.568;2022-10-30T08:05:05;48.53;;;17.55;;
44304;SDS011;30019;50.576;8.568;2022-10-30T08:07:35;51.15;;;17.00;;
44304;SDS011;30019;50.576;8.568;2022-10-30T08:10:02;46.58;;;15.98;;
44304;SDS011;30019;50.576;8.568;2022-10-30T08:12:28;38.25;;;16.50;;
44304;SDS011;30019;50.576;8.568;2022-10-30T08:14:56;53.20;;;15.77;;
44304;SDS011;30019;50.576;8.568;2022-10-30T08:17:21;39.38;;;15.80;;
44304;SDS011;30019;50.576;8.568;2022-10-30T08:19:47;49.80;;;15.43;;
44304;SDS011;30019;50.576;8.568;2022-10-30T08:22:13;58.53;;;17.52;;
44304;SDS011;30019;50.576;8.568;2022-10-30T08:24:39;55.75;;;17.00;;
44304;SDS011;30019;50.576;8.568;2022-10-30T08:27:04;47.30;;;15.77;;
44304;SDS011;30019;50.576;8.568;2022-10-30T08:29:30;54.50;;;16.48;;
44304;SDS011;30019;50.576;8.568;2022-10-30T08:31:56;46.13;;;17.60;;
44304;SDS011;30019;50.576;8.568;2022-10-30T08:34:22;59.05;;;18.87;;
44304;SDS011;30019;50.576;8.568;2022-10-30T08:36:48;43.15;;;17.95;;
44304;SDS011;30019;50.576;8.568;2022-10-30T08:39:14;76.28;;;17.85;;
44304;SDS011;30019;50.576;8.568;2022-10-30T08:41:40;53.45;;;16.65;;
44304;SDS011;30019;50.576;8.568;2022-10-30T08:44:06;47.70;;;16.75;;
44304;SDS011;30019;50.576;8.568;2022-10-30T08:46:31;58.00;;;16.60;;
44304;SDS011;30019;50.576;8.568;2022-10-30T08:48:57;63.78;;;17.80;;
44304;SDS011;30019;50.576;8.568;2022-10-30T08:51:22;49.08;;;16.50;;
44304;SDS011;30019;50.576;8.568;2022-10-30T08:53:48;53.08;;;15.90;;
44304;SDS011;30019;50.576;8.568;2022-10-30T08:56:14;65.87;;;15.82;;
44304;SDS011;30019;50.576;8.568;2022-10-30T08:58:40;57.22;;;15.20;;
44304;SDS011;30019;50.576;8.568;2022-10-30T09:01:05;61.75;;;15.88;;
44304;SDS011;30019;50.576;8.568;2022-10-30T09:03:31;58.78;;;15.00;;
44304;SDS011;30019;50.576;8.568;2022-10-30T09:06:00;59.83;;;16.12;;
44304;SDS011;30019;50.576;8.568;2022-10-30T09:08:26;47.05;;;15.55;;
44304;SDS011;30019;50.576;8.568;2022-10-30T09:10:56;59.83;;;15.25;;
44304;SDS011;30019;50.576;8.568;2022-10-30T09:13:22;40.78;;;13.60;;
44304;SDS011;30019;50.576;8.568;2022-10-30T09:15:48;44.33;;;15.90;;
44304;SDS011;30019;50.576;8.568;2022-10-30T09:18:14;41.85;;;14.43;;
44304;SDS011;30019;50.576;8.568;2022-10-30T09:20:40;53.55;;;14.13;;
44304;SDS011;30019;50.576;8.568;2022-10-30T09:23:06;37.10;;;14.02;;
44304;SDS011;30019;50.576;8.568;2022-10-30T09:25:31;35.67;;;15.45;;
44304;SDS011;30019;50.576;8.568;2022-10-30T09:27:57;30.05;;;13.70;;
44304;SDS011;30019;50.576;8.568;2022-10-30T09:30:22;32.10;;;12.10;;
44304;SDS011;30019;50.576;8.568;2022-10-30T09:32:55;32.67;;;12.90;;
44304;SDS011;30019;50.576;8.568;2022-10-30T09:35:22;26.83;;;12.75;;
44304;SDS011;30019;50.576;8.568;2022-10-30T09:37:48;22.50;;;12.80;;
44304;SDS011;30019;50.576;8.568;2022-10-30T09:40:26;23.87;;;11.98;;
44304;SDS011;30019;50.576;8.568;2022-10-30T09:43:22;20.37;;;12.05;;
44304;SDS011;30019;50.576;8.568;2022-10-30T09:48:54;20.42;;;12.98;;
44304;SDS011;30019;50.576;8.568;2022-10-30T09:56:53;23.58;;;12.60;;
44304;SDS011;30019;50.576;8.568;2022-10-30T10:02:36;31.27;;;19.60;;
44304;SDS011;30019;50.576;8.568;2022-10-30T10:05:05;25.30;;;15.57;;
44304;SDS011;30019;50.576;8.568;2022-10-30T10:07:46;25.67;;;14.77;;
44304;SDS011;30019;50.576;8.568;2022-10-30T10:10:17;28.48;;;14.50;;
44304;SDS011;30019;50.576;8.568;2022-10-30T10:12:49;25.90;;;14.55;;
44304;SDS011;30019;50.576;8.568;2022-10-30T10:17:52;27.08;;;13.62;;
44304;SDS011;30019;50.576;8.568;2022-10-30T10:20:26;27.02;;;13.95;;
44304;SDS011;30019;50.576;8.568;2022-10-30T10:25:56;20.55;;;13.07;;
44304;SDS011;30019;50.576;8.568;2022-10-30T10:28:41;21.05;;;13.55;;
44304;SDS011;30019;50.576;8.568;2022-10-30T10:31:23;22.20;;;14.10;;
44304;SDS011;30019;50.576;8.568;2022-10-30T10:34:08;17.50;;;12.90;;
44304;SDS011;30019;50.576;8.568;2022-10-30T10:36:46;19.00;;;13.23;;
44304;SDS011;30019;50.576;8.568;2022-10-30T10:51:05;19.20;;;11.77;;
44304;SDS011;30019;50.576;8.568;2022-10-30T10:53:43;14.50;;;10.70;;
44304;SDS011;30019;50.576;8.568;2022-10-30T10:56:13;21.70;;;11.20;;
44304;SDS011;30019;50.576;8.568;2022-10-30T11:01:17;29.55;;;15.07;;
44304;SDS011;30019;50.576;8.568;2022-10-30T11:03:53;17.27;;;10.63;;
44304;SDS011;30019;50.576;8.568;2022-10-30T11:06:32;18.42;;;13.65;;
44304;SDS011;30019;50.576;8.568;2022-10-30T11:09:11;20.95;;;10.75;;
44304;SDS011;30019;50.576;8.568;2022-10-30T11:11:38;16.85;;;10.15;;
44304;SDS011;30019;50.576;8.568;2022-10-30T11:14:09;14.13;;;9.68;;
44304;SDS011;30019;50.576;8.568;2022-10-30T11:16:46;16.70;;;10.25;;
44304;SDS011;30019;50.576;8.568;2022-10-30T11:19:21;15.07;;;10.38;;
44304;SDS011;30019;50.576;8.568;2022-10-30T11:21:47;16.17;;;10.30;;
44304;SDS011;30019;50.576;8.568;2022-10-30T11:24:30;13.02;;;9.70;;
44304;SDS011;30019;50.576;8.568;2022-10-30T11:26:58;13.82;;;9.00;;
44304;SDS011;30019;50.576;8.568;2022-10-30T11:30:01;15.90;;;9.90;;
44304;SDS011;30019;50.576;8.568;2022-10-30T11:32:29;16.98;;;9.45;;
44304;SDS011;30019;50.576;8.568;2022-10-30T11:35:07;12.15;;;8.90;;
44304;SDS011;30019;50.576;8.568;2022-10-30T11:37:41;16.65;;;10.60;;
44304;SDS011;30019;50.576;8.568;2022-10-30T11:42:41;19.50;;;11.50;;
44304;SDS011;30019;50.576;8.568;2022-10-30T11:45:25;21.75;;;11.10;;
44304;SDS011;30019;50.576;8.568;2022-10-30T11:47:56;21.85;;;11.27;;
44304;SDS011;30019;50.576;8.568;2022-10-30T11:50:24;18.23;;;11.38;;
44304;SDS011;30019;50.576;8.568;2022-10-30T11:52:54;23.05;;;11.95;;
44304;SDS011;30019;50.576;8.568;2022-10-30T11:58:01;20.50;;;12.35;;
44304;SDS011;30019;50.576;8.568;2022-10-30T12:00:31;19.85;;;12.00;;
44304;SDS011;30019;50.576;8.568;2022-10-30T12:03:00;18.50;;;11.88;;
44304;SDS011;30019;50.576;8.568;2022-10-30T12:05:28;22.35;;;12.32;;
44304;SDS011;30019;50.576;8.568;2022-10-30T12:10:33;19.58;;;12.55;;
44304;SDS011;30019;50.576;8.568;2022-10-30T12:13:06;21.58;;;12.70;;
44304;SDS011;30019;50.576;8.568;2022-10-30T12:15:40;26.05;;;14.68;;
44304;SDS011;30019;50.576;8.568;2022-10-30T12:18:07;26.17;;;13.27;;
44304;SDS011;30019;50.576;8.568;2022-10-30T12:20:44;30.90;;;13.07;;
44304;SDS011;30019;50.576;8.568;2022-10-30T12:23:15;24.98;;;13.10;;
44304;SDS011;30019;50.576;8.568;2022-10-30T12:25:45;24.67;;;12.23;;
44304;SDS011;30019;50.576;8.568;2022-10-30T12:28:13;20.52;;;12.70;;
44304;SDS011;30019;50.576;8.568;2022-10-30T12:36:24;20.85;;;11.25;;
44304;SDS011;30019;50.576;8.568;2022-10-30T12:39:04;18.17;;;10.50;;
44304;SDS011;30019;50.576;8.568;2022-10-30T12:41:58;20.60;;;11.50;;
44304;SDS011;30019;50.576;8.568;2022-10-30T12:44:29;18.10;;;10.45;;
44304;SDS011;30019;50.576;8.568;2022-10-30T12:49:38;20.77;;;10.95;;
44304;SDS011;30019;50.576;8.568;2022-10-30T12:52:09;26.02;;;11.50;;
44304;SDS011;30019;50.576;8.568;2022-10-30T12:57:36;17.98;;;11.07;;
44304;SDS011;30019;50.576;8.568;2022-10-30T13:00:14;19.20;;;10.48;;
44304;SDS011;30019;50.576;8.568;2022-10-30T13:05:38;22.08;;;10.35;;
44304;SDS011;30019;50.576;8.568;2022-10-30T13:13:40;19.83;;;10.15;;
44304;SDS011;30019;50.576;8.568;2022-10-30T13:16:13;19.77;;;9.75;;
44304;SDS011;30019;50.576;8.568;2022-10-30T13:19:00;19.00;;;9.63;;
44304;SDS011;30019;50.576;8.568;2022-10-30T13:21:38;20.25;;;9.23;;
44304;SDS011;30019;50.576;8.568;2022-10-30T13:24:15;19.60;;;8.73;;
44304;SDS011;30019;50.576;8.568;2022-10-30T13:27:03;17.70;;;8.43;;
44304;SDS011;30019;50.576;8.568;2022-10-30T13:43:49;14.30;;;7.95;;
44304;SDS011;30019;50.576;8.568;2022-10-30T13:49:08;19.35;;;7.68;;
44304;SDS011;30019;50.576;8.568;2022-10-30T13:54:29;20.30;;;8.35;;
44304;SDS011;30019;50.576;8.568;2022-10-30T13:57:02;16.90;;;8.02;;
44304;SDS011;30019;50.576;8.568;2022-10-30T14:05:06;18.02;;;8.30;;
44304;SDS011;30019;50.576;8.568;2022-10-30T14:11:12;16.95;;;7.05;;
44304;SDS011;30019;50.576;8.568;2022-10-30T14:13:45;15.57;;;7.37;;
44304;SDS011;30019;50.576;8.568;2022-10-30T14:19:04;15.70;;;6.97;;
44304;SDS011;30019;50.576;8.568;2022-10-30T14:24:17;23.20;;;6.85;;
44304;SDS011;30019;50.576;8.568;2022-10-30T14:27:18;18.27;;;7.22;;
44304;SDS011;30019;50.576;8.568;2022-10-30T14:29:51;16.73;;;6.80;;
44304;SDS011;30019;50.576;8.568;2022-10-30T14:34:43;13.38;;;6.35;;
44304;SDS011;30019;50.576;8.568;2022-10-30T14:37:09;18.23;;;6.93;;
44304;SDS011;30019;50.576;8.568;2022-10-30T14:39:42;14.13;;;5.78;;
44304;SDS011;30019;50.576;8.568;2022-10-30T14:50:37;13.80;;;5.57;;
44304;SDS011;30019;50.576;8.568;2022-10-30T14:53:21;19.08;;;5.93;;
44304;SDS011;30019;50.576;8.568;2022-10-30T14:55:51;17.25;;;5.70;;
44304;SDS011;30019;50.576;8.568;2022-10-30T14:58:24;35.65;;;6.43;;
44304;SDS011;30019;50.576;8.568;2022-10-30T15:00:54;21.33;;;7.03;;
44304;SDS011;30019;50.576;8.568;2022-10-30T15:06:30;19.40;;;6.53;;
44304;SDS011;30019;50.576;8.568;2022-10-30T15:11:49;13.80;;;6.25;;
44304;SDS011;30019;50.576;8.568;2022-10-30T15:14:27;12.27;;;5.87;;
44304;SDS011;30019;50.576;8.568;2022-10-30T15:16:57;11.63;;;6.55;;
44304;SDS011;30019;50.576;8.568;2022-10-30T15:19:23;12.25;;;6.40;;
44304;SDS011;30019;50.576;8.568;2022-10-30T15:21:50;15.57;;;6.18;;
44304;SDS011;30019;50.576;8.568;2022-10-30T15:24:19;13.93;;;6.15;;
44304;SDS011;30019;50.576;8.568;2022-10-30T15:26:51;15.75;;;6.18;;
44304;SDS011;30019;50.576;8.568;2022-10-30T15:29:20;19.98;;;6.00;;
44304;SDS011;30019;50.576;8.568;2022-10-30T15:31:55;14.82;;;5.97;;
44304;SDS011;30019;50.576;8.568;2022-10-30T15:34:26;17.60;;;6.62;;
44304;SDS011;30019;50.576;8.568;2022-10-30T15:36:53;19.98;;;6.40;;
44304;SDS011;30019;50.576;8.568;2022-10-30T15:39:19;14.57;;;6.07;;
44304;SDS011;30019;50.576;8.568;2022-10-30T15:41:46;15.45;;;6.80;;
44304;SDS011;30019;50.576;8.568;2022-10-30T15:44:12;16.67;;;5.97;;
44304;SDS011;30019;50.576;8.568;2022-10-30T15:46:44;12.07;;;6.37;;
44304;SDS011;30019;50.576;8.568;2022-10-30T15:49:16;17.75;;;7.45;;
44304;SDS011;30019;50.576;8.568;2022-10-30T15:51:48;16.75;;;6.70;;
44304;SDS011;30019;50.576;8.568;2022-10-30T15:54:15;18.62;;;6.75;;
44304;SDS011;30019;50.576;8.568;2022-10-30T15:56:45;14.35;;;6.97;;
44304;SDS011;30019;50.576;8.568;2022-10-30T15:59:26;20.70;;;6.95;;
44304;SDS011;30019;50.576;8.568;2022-10-30T16:01:54;18.42;;;6.93;;
44304;SDS011;30019;50.576;8.568;2022-10-30T16:04:23;15.68;;;7.32;;
44304;SDS011;30019;50.576;8.568;2022-10-30T16:06:51;15.80;;;7.70;;
44304;SDS011;30019;50.576;8.568;2022-10-30T16:09:18;20.23;;;7.93;;
44304;SDS011;30019;50.576;8.568;2022-10-30T16:11:45;14.73;;;8.00;;
44304;SDS011;30019;50.576;8.568;2022-10-30T16:14:13;21.42;;;8.73;;
44304;SDS011;30019;50.576;8.568;2022-10-30T16:16:49;40.22;;;20.95;;
44304;SDS011;30019;50.576;8.568;2022-10-30T16:19:21;41.08;;;23.17;;
44304;SDS011;30019;50.576;8.568;2022-10-30T16:21:52;30.65;;;16.67;;
44304;SDS011;30019;50.576;8.568;2022-10-30T16:24:20;35.95;;;19.02;;
44304;SDS011;30019;50.576;8.568;2022-10-30T16:27:00;40.33;;;16.90;;
44304;SDS011;30019;50.576;8.568;2022-10-30T16:29:30;28.50;;;17.17;;
44304;SDS011;30019;50.576;8.568;2022-10-30T16:31:57;28.62;;;14.18;;
44304;SDS011;30019;50.576;8.568;2022-10-30T16:34:25;32.67;;;13.98;;
44304;SDS011;30019;50.576;8.568;2022-10-30T16:36:55;20.05;;;12.57;;
44304;SDS011;30019;50.576;8.568;2022-10-30T16:39:22;30.30;;;12.82;;
44304;SDS011;30019;50.576;8.568;2022-10-30T16:41:48;23.10;;;11.60;;